createdAt,value
2022-10-13T00:00:43.533Z,97584.50
2022-10-13T00:03:11.980Z,97565.09
2022-10-13T00:05:42.419Z,97566.16
2022-10-13T00:08:10.545Z,97567.63
2022-10-13T00:10:43.721Z,97574.38
2022-10-13T00:13:14.993Z,97580.34
2022-10-13T00:15:44.500Z,97574.22
2022-10-13T00:18:12.545Z,97581.59
2022-10-13T00:20:43.438Z,97577.28
2022-10-13T00:23:11.485Z,97569.81
2022-10-13T00:25:43.111Z,97577.34
2022-10-13T00:28:11.604Z,97580.66
2022-10-13T00:30:41.560Z,97572.19
2022-10-13T00:33:09.773Z,97574.00
2022-10-13T00:35:41.952Z,97577.47
2022-10-13T00:38:10.952Z,97570.47
2022-10-13T00:40:45.328Z,97581.88
2022-10-13T00:43:17.640Z,97577.63
2022-10-13T00:45:50.013Z,97575.78
2022-10-13T00:48:19.046Z,97582.19
2022-10-13T00:50:47.208Z,97572.78
2022-10-13T00:53:16.512Z,97572.28
2022-10-13T00:55:45.248Z,97582.56
2022-10-13T00:58:16.413Z,97569.16
2022-10-13T01:00:48.061Z,97577.78
2022-10-13T01:03:17.866Z,97581.06
2022-10-13T01:05:45.888Z,97585.13
2022-10-13T01:08:15.097Z,97583.56
2022-10-13T01:10:48.363Z,97580.03
2022-10-13T01:13:22.979Z,97575.72
2022-10-13T01:15:57.519Z,97576.56
2022-10-13T01:18:32.661Z,97581.16
2022-10-13T01:21:07.885Z,97582.22
2022-10-13T01:24:06.299Z,97578.50
2022-10-13T01:27:01.066Z,97577.69
2022-10-13T01:30:07.536Z,97577.69
2022-10-13T01:32:44.262Z,97577.19
2022-10-13T01:35:15.266Z,97568.34
2022-10-13T01:37:47.100Z,97561.44
2022-10-13T01:40:20.445Z,97564.13
2022-10-13T01:42:57.987Z,97567.59
2022-10-13T01:45:31.902Z,97563.63
2022-10-13T01:48:00.929Z,97557.72
2022-10-13T01:50:29.443Z,97559.88
2022-10-13T01:53:00.780Z,97555.28
2022-10-13T01:55:29.692Z,97557.72
2022-10-13T01:57:57.681Z,97556.66
2022-10-13T02:00:27.451Z,97556.97
2022-10-13T02:03:05.697Z,97572.25
2022-10-13T02:05:39.802Z,97564.25
2022-10-13T02:08:14.668Z,97563.13
2022-10-13T02:10:47.695Z,97566.91
2022-10-13T02:13:17.542Z,97570.66
2022-10-13T02:15:49.649Z,97564.47
2022-10-13T02:18:20.233Z,97563.13
2022-10-13T02:20:48.566Z,97565.84
2022-10-13T02:23:18.008Z,97563.69
2022-10-13T02:25:46.239Z,97563.44
2022-10-13T02:28:14.793Z,97566.38
2022-10-13T02:30:47.480Z,97562.13
2022-10-13T02:33:15.877Z,97562.66
2022-10-13T02:35:44.221Z,97554.34
2022-10-13T02:38:12.297Z,97561.03
2022-10-13T02:40:40.316Z,97558.63
2022-10-13T02:43:08.337Z,97561.63
2022-10-13T02:45:36.308Z,97562.13
2022-10-13T02:48:05.851Z,97555.13
2022-10-13T02:50:33.838Z,97556.22
2022-10-13T02:53:01.808Z,97555.72
2022-10-13T02:55:29.979Z,97548.72
2022-10-13T02:57:58.079Z,97549.84
2022-10-13T03:00:26.275Z,97553.59
2022-10-13T03:02:54.733Z,97548.22
2022-10-13T03:05:24.080Z,97550.09
2022-10-13T03:07:52.061Z,97540.72
2022-10-13T03:10:20.188Z,97541.75
2022-10-13T03:12:48.660Z,97543.09
2022-10-13T03:15:16.780Z,97544.44
2022-10-13T03:17:44.817Z,97542.25
2022-10-13T03:20:12.801Z,97539.38
2022-10-13T03:22:44.918Z,97546.63
2022-10-13T03:25:16.875Z,97536.69
2022-10-13T03:27:44.885Z,97544.16
2022-10-13T03:30:13.448Z,97545.28
2022-10-13T03:32:41.703Z,97536.97
2022-10-13T03:35:10.085Z,97532.09
2022-10-13T03:37:38.069Z,97531.59
2022-10-13T03:40:09.219Z,97532.94
2022-10-13T03:42:37.544Z,97545.53
2022-10-13T03:45:06.127Z,97543.66
2022-10-13T03:47:37.857Z,97545.00
2022-10-13T03:50:07.145Z,97542.56
2022-10-13T03:52:35.172Z,97550.09
2022-10-13T03:55:03.465Z,97548.50
2022-10-13T03:57:32.883Z,97550.88
2022-10-13T04:00:01.649Z,97558.41
2022-10-13T04:02:29.710Z,97548.50
2022-10-13T04:05:00.451Z,97550.38
2022-10-13T04:07:28.451Z,97558.16
2022-10-13T04:09:56.481Z,97554.44
2022-10-13T04:12:24.624Z,97560.03
2022-10-13T04:14:54.105Z,97561.63
2022-10-13T04:17:22.136Z,97559.75
2022-10-13T04:19:50.146Z,97555.47
2022-10-13T04:22:18.653Z,97554.97
2022-10-13T04:24:49.040Z,97556.06
2022-10-13T04:27:19.121Z,97562.75
2022-10-13T04:29:47.514Z,97556.25
2022-10-13T04:32:17.187Z,97549.28
2022-10-13T04:34:45.537Z,97554.66
2022-10-13T04:37:13.577Z,97560.56
2022-10-13T04:39:41.640Z,97562.75
2022-10-13T04:42:09.632Z,97562.25
2022-10-13T04:44:39.253Z,97557.41
2022-10-13T04:47:08.197Z,97559.00
2022-10-13T04:49:37.609Z,97566.22
2022-10-13T04:52:05.607Z,97565.94
2022-10-13T04:54:33.603Z,97558.44
2022-10-13T04:57:01.564Z,97565.41
2022-10-13T04:59:29.688Z,97559.22
2022-10-13T05:01:57.730Z,97556.81
2022-10-13T05:04:25.729Z,97560.31
2022-10-13T05:07:16.395Z,97550.63
2022-10-13T05:09:43.045Z,97543.94
2022-10-13T05:12:14.023Z,97552.50
2022-10-13T05:14:42.044Z,97553.06
2022-10-13T05:17:10.039Z,97549.28
2022-10-13T05:19:38.062Z,97546.59
2022-10-13T05:22:07.527Z,97552.19
2022-10-13T05:24:37.460Z,97547.63
2022-10-13T05:27:06.838Z,97557.03
2022-10-13T05:29:34.900Z,97551.94
2022-10-13T05:32:02.948Z,97550.31
2022-10-13T05:34:31.047Z,97554.59
2022-10-13T05:36:59.002Z,97553.25
2022-10-13T05:39:28.716Z,97554.59
2022-10-13T05:41:56.673Z,97562.09
2022-10-13T05:44:24.731Z,97552.19
2022-10-13T05:46:56.806Z,97557.03
2022-10-13T05:49:24.867Z,97556.47
2022-10-13T05:51:55.253Z,97561.59
2022-10-13T05:54:30.681Z,97559.13
2022-10-13T05:57:00.703Z,97551.91
2022-10-13T05:59:31.031Z,97546.00
2022-10-13T06:01:59.192Z,97546.53
2022-10-13T06:04:31.720Z,97552.97
2022-10-13T06:06:59.766Z,97557.81
2022-10-13T06:09:34.585Z,97547.91
2022-10-13T06:12:02.615Z,97555.63
2022-10-13T06:14:30.658Z,97553.75
2022-10-13T06:16:58.801Z,97563.66
2022-10-13T06:19:26.880Z,97552.44
2022-10-13T06:21:54.928Z,97560.47
2022-10-13T06:24:22.949Z,97550.00
2022-10-13T06:26:52.340Z,97552.16
2022-10-13T06:29:20.347Z,97557.78
2022-10-13T06:31:48.395Z,97552.41
2022-10-13T06:34:16.638Z,97557.78
2022-10-13T06:36:45.989Z,97561.00
2022-10-13T06:39:14.486Z,97564.22
2022-10-13T06:41:42.491Z,97567.44
2022-10-13T06:44:12.249Z,97558.81
2022-10-13T06:46:40.272Z,97559.63
2022-10-13T06:49:10.343Z,97563.06
2022-10-13T06:51:38.511Z,97562.53
2022-10-13T06:54:06.791Z,97567.91
2022-10-13T06:56:34.974Z,97563.34
2022-10-13T06:59:12.977Z,97557.97
2022-10-13T07:01:41.896Z,97564.16
2022-10-13T07:04:14.158Z,97568.94
2022-10-13T07:06:42.268Z,97567.06
2022-10-13T07:09:10.551Z,97568.41
2022-10-13T07:11:38.893Z,97565.16
2022-10-13T07:14:06.926Z,97560.34
2022-10-13T07:16:36.692Z,97557.38
2022-10-13T07:19:06.192Z,97554.94
2022-10-13T07:21:34.182Z,97553.88
2022-10-13T07:24:03.100Z,97551.19
2022-10-13T07:26:32.547Z,97548.47
2022-10-13T07:29:00.877Z,97554.88
2022-10-13T07:31:29.111Z,97552.75
2022-10-13T07:34:00.540Z,97549.50
2022-10-13T07:40:10.380Z,97546.72
2022-10-13T07:42:38.418Z,97553.47
2022-10-13T07:45:08.006Z,97557.47
2022-10-13T07:47:36.021Z,97552.63
2022-10-13T07:50:04.261Z,97557.16
2022-10-13T07:52:32.258Z,97556.34
2022-10-13T07:55:00.236Z,97550.41
2022-10-13T07:57:29.715Z,97548.75
2022-10-13T07:59:57.755Z,97548.47
2022-10-13T08:02:26.261Z,97550.84
2022-10-13T08:04:54.285Z,97535.75
2022-10-13T08:07:22.789Z,97539.78
2022-10-13T08:09:51.113Z,97540.81
2022-10-13T08:12:19.328Z,97533.28
2022-10-13T08:14:51.476Z,97530.53
2022-10-13T08:17:19.707Z,97535.63
2022-10-13T08:19:47.955Z,97525.63
2022-10-13T08:22:15.955Z,97524.25
2022-10-13T08:24:44.047Z,97526.59
2022-10-13T08:27:12.368Z,97526.84
2022-10-13T08:29:43.020Z,97512.81
2022-10-13T08:32:12.718Z,97522.22
2022-10-13T08:34:40.809Z,97521.09
2022-10-13T08:37:14.609Z,97522.91
2022-10-13T08:39:42.600Z,97526.63
2022-10-13T08:42:18.388Z,97522.28
2022-10-13T08:45:16.042Z,97526.00
2022-10-13T08:47:41.407Z,97533.38
2022-10-13T08:50:14.534Z,97527.09
2022-10-13T08:52:47.235Z,97535.03
2022-10-13T08:55:21.649Z,97534.81
2022-10-13T08:57:49.921Z,97532.53
2022-10-13T09:00:18.885Z,97525.78
2022-10-13T09:02:52.034Z,97521.31
2022-10-13T09:05:26.716Z,97519.81
2022-10-13T09:07:58.629Z,97525.66
2022-10-13T09:10:27.684Z,97527.47
2022-10-13T09:12:56.207Z,97529.88
2022-10-13T09:15:24.375Z,97520.94
2022-10-13T09:18:13.837Z,97517.84
2022-10-13T09:20:42.254Z,97525.28
2022-10-13T09:23:19.928Z,97514.16
2022-10-13T09:25:50.545Z,97508.63
2022-10-13T09:28:22.096Z,97508.25
2022-10-13T09:31:02.390Z,97500.63
2022-10-13T09:33:36.345Z,97515.28
2022-10-13T09:36:12.725Z,97508.44
2022-10-13T09:38:42.114Z,97509.97
2022-10-13T09:41:15.988Z,97513.38
2022-10-13T09:43:45.323Z,97507.03
2022-10-13T09:46:24.189Z,97499.88
2022-10-13T09:48:54.914Z,97485.72
2022-10-13T09:51:33.213Z,97492.72
2022-10-13T09:54:07.259Z,97482.53
2022-10-13T09:56:39.676Z,97486.09
2022-10-13T09:59:13.942Z,97480.75
2022-10-13T10:01:44.296Z,97487.53
2022-10-13T10:04:15.608Z,97492.53
2022-10-13T10:06:45.361Z,97483.50
2022-10-13T10:09:33.014Z,97485.28
2022-10-13T10:12:01.669Z,97485.38
2022-10-13T10:14:32.217Z,97484.19
2022-10-13T10:17:05.870Z,97482.28
2022-10-13T10:19:54.614Z,97484.19
2022-10-13T10:22:31.227Z,97482.38
2022-10-13T10:25:04.899Z,97477.34
2022-10-13T10:27:41.356Z,97478.53
2022-10-13T10:30:16.260Z,97470.63
2022-10-13T10:32:50.061Z,97472.91
2022-10-13T10:35:30.664Z,97462.47
2022-10-13T10:38:07.447Z,97469.06
2022-10-13T10:40:40.623Z,97465.44
2022-10-13T10:43:34.331Z,97463.63
2022-10-13T10:46:02.767Z,97456.66
2022-10-13T10:48:34.786Z,97459.63
2022-10-13T10:51:07.551Z,97461.19
2022-10-13T10:53:39.173Z,97450.41
2022-10-13T10:56:13.892Z,97453.22
2022-10-13T10:58:46.795Z,97444.16
2022-10-13T11:01:28.825Z,97444.19
2022-10-13T11:04:00.034Z,97448.56
2022-10-13T11:06:36.241Z,97443.75
2022-10-13T11:09:05.336Z,97434.91
2022-10-13T11:11:38.980Z,97423.81
2022-10-13T11:14:36.593Z,97426.72
2022-10-13T11:17:20.367Z,97417.53
2022-10-13T11:19:49.941Z,97410.69
2022-10-13T11:22:24.895Z,97408.59
2022-10-13T11:25:17.582Z,97404.66
2022-10-13T11:27:45.783Z,97404.22
2022-10-13T11:30:50.204Z,97399.63
2022-10-13T11:33:49.229Z,97389.59
2022-10-13T11:36:31.748Z,97393.13
2022-10-13T11:39:10.887Z,97391.91
2022-10-13T11:41:45.019Z,97390.63
2022-10-13T11:44:21.045Z,97389.84
2022-10-13T11:46:57.907Z,97392.53
2022-10-13T11:49:45.020Z,97390.44
2022-10-13T11:52:31.599Z,97374.19
2022-10-13T11:55:04.817Z,97376.91
2022-10-13T11:57:33.891Z,97378.53
2022-10-13T12:00:04.798Z,97379.47
2022-10-13T12:02:48.820Z,97375.16
2022-10-13T12:05:25.280Z,97371.50
2022-10-13T12:07:54.680Z,97365.75
2022-10-13T12:10:26.667Z,97360.19
2022-10-13T12:12:54.708Z,97358.06
2022-10-13T12:15:31.472Z,97347.53
2022-10-13T12:17:59.747Z,97344.81
2022-10-13T12:20:32.435Z,97339.34
2022-10-13T12:23:00.560Z,97340.31
2022-10-13T12:25:31.227Z,97329.97
2022-10-13T12:28:01.402Z,97331.53
2022-10-13T12:30:31.375Z,97324.00
2022-10-13T12:33:01.050Z,97317.47
2022-10-13T12:35:30.874Z,97323.53
2022-10-13T12:38:02.094Z,97322.22
2022-10-13T12:40:31.683Z,97330.91
2022-10-13T12:42:59.809Z,97316.50
2022-10-13T12:45:31.616Z,97320.88
2022-10-13T12:47:59.708Z,97319.69
2022-10-13T12:50:37.054Z,97321.28
2022-10-13T12:53:11.198Z,97312.16
2022-10-13T12:55:49.828Z,97320.78
2022-10-13T12:58:23.779Z,97314.19
2022-10-13T13:01:21.852Z,97314.75
2022-10-13T13:03:56.458Z,97307.84
2022-10-13T13:06:29.668Z,97311.97
2022-10-13T13:09:19.932Z,97305.16
2022-10-13T13:11:50.039Z,97296.38
2022-10-13T13:14:26.430Z,97296.00
2022-10-13T13:17:08.771Z,97299.38
2022-10-13T13:19:37.665Z,97294.41
2022-10-13T13:22:06.831Z,97296.81
2022-10-13T13:24:40.096Z,97294.53
2022-10-13T13:27:25.360Z,97286.88
2022-10-13T13:30:19.014Z,97293.13
2022-10-13T13:32:47.454Z,97291.50
2022-10-13T13:35:15.655Z,97287.41
2022-10-13T13:37:45.808Z,97276.22
2022-10-13T13:40:16.718Z,97282.63
2022-10-13T13:42:46.563Z,97281.94
2022-10-13T13:45:14.866Z,97278.72
2022-10-13T13:47:43.168Z,97274.22
2022-10-13T13:50:16.024Z,97273.88
2022-10-13T13:52:48.567Z,97268.97
2022-10-13T13:55:16.672Z,97264.94
2022-10-13T13:57:46.585Z,97263.34
2022-10-13T14:00:15.962Z,97265.06
2022-10-13T14:02:46.201Z,97258.84
2022-10-13T14:05:15.119Z,97263.63
2022-10-13T14:07:43.175Z,97261.25
2022-10-13T14:10:12.046Z,97255.94
2022-10-13T14:12:40.347Z,97257.72
2022-10-13T14:15:11.138Z,97263.63
2022-10-13T14:17:39.193Z,97263.63
2022-10-13T14:20:08.320Z,97263.63
2022-10-13T14:22:39.202Z,97258.66
2022-10-13T14:25:08.531Z,97259.13
2022-10-13T14:27:37.036Z,97267.47
2022-10-13T14:30:06.271Z,97261.38
2022-10-13T14:32:36.226Z,97257.09
2022-10-13T14:35:04.735Z,97261.75
2022-10-13T14:37:33.730Z,97254.94
2022-10-13T14:40:02.186Z,97251.78
2022-10-13T14:42:30.342Z,97254.31
2022-10-13T14:44:58.382Z,97249.19
2022-10-13T14:47:27.826Z,97249.78
2022-10-13T14:49:57.207Z,97250.25
2022-10-13T14:52:25.253Z,97239.41
2022-10-13T14:54:53.270Z,97248.78
2022-10-13T14:57:21.460Z,97247.31
2022-10-13T14:59:49.698Z,97245.19
2022-10-13T15:02:17.894Z,97248.38
2022-10-13T15:04:54.748Z,97251.56
2022-10-13T15:07:24.247Z,97253.81
2022-10-13T15:10:04.206Z,97248.56
2022-10-13T15:12:33.969Z,97247.47
2022-10-13T15:15:02.176Z,97245.06
2022-10-13T15:17:31.584Z,97243.16
2022-10-13T15:19:59.681Z,97236.44
2022-10-13T15:22:29.096Z,97239.50
2022-10-13T15:24:57.163Z,97245.59
2022-10-13T15:27:25.367Z,97238.88
2022-10-13T15:29:53.389Z,97238.44
2022-10-13T15:32:21.866Z,97239.03
2022-10-13T15:34:55.835Z,97242.09
2022-10-13T15:37:25.908Z,97251.38
2022-10-13T15:39:57.530Z,97242.75
2022-10-13T15:42:25.834Z,97246.56
2022-10-13T15:45:10.876Z,97241.03
2022-10-13T15:47:39.618Z,97238.63
2022-10-13T15:50:08.721Z,97244.38
2022-10-13T15:52:39.833Z,97241.53
2022-10-13T15:55:09.827Z,97241.41
2022-10-13T15:57:38.219Z,97240.59
2022-10-13T16:00:08.002Z,97242.84
2022-10-13T16:02:41.337Z,97244.63
2022-10-13T16:05:10.626Z,97241.75
2022-10-13T16:07:39.915Z,97240.03
2022-10-13T16:10:11.029Z,97235.25
2022-10-13T16:12:39.584Z,97239.09
2022-10-13T16:15:09.164Z,97233.19
2022-10-13T16:17:37.853Z,97234.97
2022-10-13T16:20:07.271Z,97231.66
2022-10-13T16:22:35.517Z,97233.06
2022-10-13T16:25:04.969Z,97229.13
2022-10-13T16:27:34.751Z,97227.84
2022-10-13T16:30:02.819Z,97219.56
2022-10-13T16:32:32.493Z,97227.22
2022-10-13T16:35:00.655Z,97237.88
2022-10-13T16:37:28.621Z,97238.56
2022-10-13T16:39:56.681Z,97239.84
2022-10-13T16:42:24.742Z,97241.13
2022-10-13T16:44:54.338Z,97242.56
2022-10-13T16:47:22.669Z,97242.41
2022-10-13T16:49:50.973Z,97236.38
2022-10-13T16:52:19.132Z,97238.16
2022-10-13T16:54:49.413Z,97254.22
2022-10-13T16:57:17.580Z,97244.38
2022-10-13T16:59:47.668Z,97247.22
2022-10-13T17:02:17.149Z,97253.59
2022-10-13T17:04:45.253Z,97245.59
2022-10-13T17:07:13.314Z,97245.31
2022-10-13T17:09:41.744Z,97245.94
2022-10-13T17:12:11.821Z,97251.53
2022-10-13T17:14:40.105Z,97254.88
2022-10-13T17:17:08.365Z,97244.19
2022-10-13T17:19:37.948Z,97239.72
2022-10-13T17:22:06.426Z,97240.38
2022-10-13T17:24:34.489Z,97245.31
2022-10-13T17:27:02.507Z,97246.28
2022-10-13T17:29:30.595Z,97247.69
2022-10-13T17:31:58.673Z,97254.53
2022-10-13T17:34:26.712Z,97253.25
2022-10-13T17:36:56.081Z,97258.19
2022-10-13T17:39:24.070Z,97258.03
2022-10-13T17:41:52.122Z,97252.47
2022-10-13T17:44:20.845Z,97255.47
2022-10-13T17:46:49.761Z,97254.50
2022-10-13T17:49:18.078Z,97250.53
2022-10-13T17:51:46.190Z,97255.78
2022-10-13T17:54:16.784Z,97247.78
2022-10-13T17:56:45.523Z,97252.25
2022-10-13T17:59:13.794Z,97252.91
2022-10-13T18:01:42.651Z,97247.59
2022-10-13T18:04:12.739Z,97246.34
2022-10-13T18:06:43.829Z,97238.53
2022-10-13T18:09:13.740Z,97244.59
2022-10-13T18:11:49.506Z,97244.09
2022-10-13T18:14:18.306Z,97246.94
2022-10-13T18:16:46.801Z,97246.47
2022-10-13T18:19:16.430Z,97247.38
2022-10-13T18:21:44.478Z,97249.13
2022-10-13T18:24:12.788Z,97258.13
2022-10-13T18:26:41.214Z,97251.28
2022-10-13T18:29:12.226Z,97248.91
2022-10-13T18:31:41.305Z,97251.41
2022-10-13T18:34:12.442Z,97250.94
2022-10-13T18:36:42.266Z,97246.16
2022-10-13T18:39:13.036Z,97251.41
2022-10-13T18:41:42.326Z,97252.31
2022-10-13T18:44:11.964Z,97243.25
2022-10-13T18:46:40.650Z,97236.56
2022-10-13T18:49:09.858Z,97237.19
2022-10-13T18:51:40.492Z,97235.41
2022-10-13T18:54:08.739Z,97226.66
2022-10-13T18:56:37.268Z,97218.69
2022-10-13T18:59:08.702Z,97222.78
2022-10-13T19:01:39.426Z,97220.41
2022-10-13T19:04:08.651Z,97215.31
2022-10-13T19:06:37.001Z,97221.31
2022-10-13T19:09:07.314Z,97215.75
2022-10-13T19:11:37.922Z,97214.47
2022-10-13T19:14:07.171Z,97216.19
2022-10-13T19:16:40.218Z,97214.22
2022-10-13T19:19:09.200Z,97215.16
2022-10-13T19:21:38.157Z,97220.88
2022-10-13T19:24:07.857Z,97214.50
2022-10-13T19:26:36.997Z,97218.59
2022-10-13T19:29:06.501Z,97219.69
2022-10-13T19:31:35.148Z,97214.13
2022-10-13T19:34:10.414Z,97222.81
2022-10-13T19:36:40.251Z,97215.94
2022-10-13T19:39:12.560Z,97216.56
2022-10-13T19:41:40.747Z,97214.50
2022-10-13T19:44:08.779Z,97216.19
2022-10-13T19:46:39.769Z,97211.06
2022-10-13T19:49:10.307Z,97211.53
2022-10-13T19:51:43.179Z,97209.44
2022-10-13T19:54:12.003Z,97211.03
2022-10-13T19:56:46.387Z,97221.59
2022-10-13T19:59:14.869Z,97217.00
2022-10-13T20:01:43.296Z,97208.44
2022-10-13T20:04:18.359Z,97213.34
2022-10-13T20:06:46.415Z,97207.44
2022-10-13T20:09:14.479Z,97201.88
2022-10-13T20:11:42.674Z,97201.69
2022-10-13T20:14:10.778Z,97196.91
2022-10-13T20:16:38.896Z,97209.28
2022-10-13T20:19:07.859Z,97207.19
2022-10-13T20:21:37.313Z,97204.59
2022-10-13T20:24:05.520Z,97198.75
2022-10-13T20:26:33.790Z,97212.13
2022-10-13T20:29:01.940Z,97203.75
2022-10-13T20:31:30.185Z,97200.44
2022-10-13T20:33:59.692Z,97202.53
2022-10-13T20:36:37.489Z,97206.81
2022-10-13T20:39:08.908Z,97213.31
2022-10-13T20:41:37.017Z,97213.44
2022-10-13T20:44:05.102Z,97205.34
2022-10-13T20:46:34.564Z,97210.53
2022-10-13T20:49:11.092Z,97217.81
2022-10-13T20:51:40.426Z,97216.53
2022-10-13T20:54:10.037Z,97218.53
2022-10-13T20:56:38.186Z,97218.22
2022-10-13T20:59:07.669Z,97211.72
2022-10-13T21:01:37.009Z,97217.13
2022-10-13T21:04:05.482Z,97217.13
2022-10-13T21:06:33.650Z,97210.75
2022-10-13T21:09:02.803Z,97212.94
2022-10-13T21:11:32.255Z,97211.34
2022-10-13T21:14:00.320Z,97214.66
2022-10-13T21:16:29.302Z,97213.56
2022-10-13T21:18:58.591Z,97215.47
2022-10-13T21:21:28.715Z,97210.06
2022-10-13T21:23:57.936Z,97212.75
2022-10-13T21:26:27.024Z,97219.25
2022-10-13T21:28:56.667Z,97212.38
2022-10-13T21:31:25.812Z,97209.38
2022-10-13T21:33:54.215Z,97210.06
2022-10-13T21:36:23.725Z,97215.00
2022-10-13T21:38:53.038Z,97211.69
2022-10-13T21:41:21.134Z,97213.78
2022-10-13T21:43:50.220Z,97213.16
2022-10-13T21:46:20.898Z,97210.47
2022-10-13T21:48:54.540Z,97215.56
2022-10-13T21:51:24.871Z,97214.78
2022-10-13T21:53:54.618Z,97222.06
2022-10-13T21:56:23.495Z,97219.19
2022-10-13T21:58:51.738Z,97225.94
2022-10-13T22:01:21.715Z,97219.75
2022-10-13T22:03:50.294Z,97221.06
2022-10-13T22:06:21.032Z,97221.47
2022-10-13T22:08:50.573Z,97220.28
2022-10-13T22:11:22.960Z,97228.53
2022-10-13T22:13:51.263Z,97224.75
2022-10-13T22:16:22.312Z,97226.84
2022-10-13T22:18:52.576Z,97223.38
2022-10-13T22:21:22.563Z,97231.44
2022-10-13T22:23:51.062Z,97222.28
2022-10-13T22:26:19.754Z,97222.56
2022-10-13T22:28:51.498Z,97228.75
2022-10-13T22:31:20.155Z,97218.78
2022-10-13T22:33:53.407Z,97224.44
2022-10-13T22:36:23.197Z,97225.75
2022-10-13T22:38:52.725Z,97221.94
2022-10-13T22:41:21.128Z,97217.34
2022-10-13T22:43:50.531Z,97210.38
2022-10-13T22:46:19.983Z,97203.88
2022-10-13T22:48:49.769Z,97205.78
2022-10-13T22:51:19.850Z,97203.41
2022-10-13T22:53:48.709Z,97203.59
2022-10-13T22:56:18.790Z,97209.28
2022-10-13T22:58:50.412Z,97199.59
2022-10-13T23:01:18.629Z,97214.38
2022-10-13T23:03:49.326Z,97202.78
2022-10-13T23:06:19.306Z,97207.59
2022-10-13T23:08:47.365Z,97204.69
2022-10-13T23:11:15.876Z,97216.78
2022-10-13T23:13:44.771Z,97233.13
2022-10-13T23:16:14.705Z,97255.28
2022-10-13T23:18:45.735Z,97243.69
2022-10-13T23:21:27.065Z,97235.56
2022-10-13T23:23:56.203Z,97232.75
2022-10-13T23:26:24.301Z,97241.31
2022-10-13T23:28:53.744Z,97240.13
2022-10-13T23:31:21.824Z,97240.00
2022-10-13T23:33:50.049Z,97233.94
2022-10-13T23:36:44.459Z,97233.75
2022-10-13T23:39:12.478Z,97232.34
2022-10-13T23:41:40.689Z,97229.56
2022-10-13T23:44:08.649Z,97225.94
2022-10-13T23:46:36.656Z,97218.38
2022-10-13T23:49:04.957Z,97216.97
2022-10-13T23:51:33.032Z,97224.75
2022-10-13T23:54:02.446Z,97227.94
2022-10-13T23:56:30.435Z,97226.13
2022-10-13T23:58:58.439Z,97220.66
